createdAt,value
2018-09-07T00:00:53.450Z,94687.11
2018-09-07T00:03:19.837Z,94686.23
2018-09-07T00:05:47.139Z,94683.20
2018-09-07T00:08:14.604Z,94681.20
2018-09-07T00:10:43.991Z,94686.07
2018-09-07T00:13:10.384Z,94680.56
2018-09-07T00:15:36.739Z,94680.16
2018-09-07T00:18:05.133Z,94680.20
2018-09-07T00:20:37.342Z,94683.03
2018-09-07T00:23:04.387Z,94686.64
2018-09-07T00:25:30.787Z,94686.37
2018-09-07T00:27:57.660Z,94686.88
2018-09-07T00:30:24.011Z,94682.56
2018-09-07T00:32:51.056Z,94683.11
2018-09-07T00:35:18.474Z,94683.58
2018-09-07T00:37:44.799Z,94687.84
2018-09-07T00:40:11.130Z,94684.55
2018-09-07T00:42:37.471Z,94689.05
2018-09-07T00:45:03.802Z,94680.28
2018-09-07T00:47:30.132Z,94680.75
2018-09-07T00:49:56.462Z,94685.89
2018-09-07T00:52:22.784Z,94674.92
2018-09-07T00:54:49.115Z,94675.52
2018-09-07T00:57:15.480Z,94680.67
2018-09-07T00:59:41.801Z,94679.02
2018-09-07T01:02:08.132Z,94687.42
2018-09-07T01:04:34.462Z,94680.98
2018-09-07T01:07:00.778Z,94683.78
2018-09-07T01:09:27.168Z,94690.50
2018-09-07T01:11:53.499Z,94687.70
2018-09-07T01:14:19.829Z,94693.24
2018-09-07T01:16:46.160Z,94690.38
2018-09-07T01:19:12.491Z,94698.38
2018-09-07T01:21:38.820Z,94688.09
2018-09-07T01:24:05.201Z,94687.77
2018-09-07T01:26:31.576Z,94690.08
2018-09-07T01:28:57.992Z,94692.06
2018-09-07T01:31:24.325Z,94690.86
2018-09-07T01:33:50.667Z,94689.73
2018-09-07T01:36:17.114Z,94688.20
2018-09-07T01:38:43.934Z,94682.92
2018-09-07T01:41:10.268Z,94685.59
2018-09-07T01:43:36.602Z,94680.52
2018-09-07T01:46:02.935Z,94675.20
2018-09-07T01:48:29.255Z,94675.20
2018-09-07T01:50:55.616Z,94675.26
2018-09-07T01:53:23.023Z,94673.41
2018-09-07T01:55:49.358Z,94675.38
2018-09-07T01:58:15.753Z,94673.87
2018-09-07T02:00:42.091Z,94669.66
2018-09-07T02:03:08.414Z,94671.95
2018-09-07T02:05:34.748Z,94673.09
2018-09-07T02:08:01.087Z,94670.81
2018-09-07T02:10:27.418Z,94669.53
2018-09-07T02:12:53.818Z,94664.75
2018-09-07T02:15:20.313Z,94663.57
2018-09-07T02:17:46.672Z,94664.06
2018-09-07T02:20:13.106Z,94662.06
2018-09-07T02:22:39.465Z,94662.19
2018-09-07T02:25:05.794Z,94657.69
2018-09-07T02:27:32.132Z,94656.92
2018-09-07T02:29:58.450Z,94657.52
2018-09-07T02:32:24.789Z,94655.77
2018-09-07T02:34:51.133Z,94663.75
2018-09-07T02:37:17.458Z,94661.66
2018-09-07T02:39:43.775Z,94659.03
2018-09-07T02:42:10.080Z,94659.09
2018-09-07T02:44:36.418Z,94657.91
2018-09-07T02:47:02.779Z,94654.13
2018-09-07T02:49:29.110Z,94651.02
2018-09-07T02:51:55.476Z,94645.79
2018-09-07T02:54:21.800Z,94646.94
2018-09-07T02:56:48.236Z,94648.91
2018-09-07T02:59:14.627Z,94653.00
2018-09-07T03:01:40.967Z,94647.86
2018-09-07T03:04:07.312Z,94652.36
2018-09-07T03:06:33.751Z,94649.80
2018-09-07T03:09:00.094Z,94646.89
2018-09-07T03:11:26.483Z,94652.72
2018-09-07T03:13:52.855Z,94653.95
2018-09-07T03:16:19.188Z,94657.16
2018-09-07T03:18:45.576Z,94660.78
2018-09-07T03:21:11.915Z,94663.11
2018-09-07T03:23:38.280Z,94666.39
2018-09-07T03:26:04.605Z,94667.14
2018-09-07T03:28:30.964Z,94665.70
2018-09-07T03:30:57.339Z,94668.09
2018-09-07T03:33:23.675Z,94666.61
2018-09-07T03:35:50.052Z,94672.16
2018-09-07T03:38:16.379Z,94675.68
2018-09-07T03:40:42.717Z,94678.35
2018-09-07T03:43:09.118Z,94677.60
2018-09-07T03:45:35.692Z,94679.77
2018-09-07T03:48:02.035Z,94680.21
2018-09-07T03:50:28.400Z,94677.93
2018-09-07T03:52:54.897Z,94689.16
2018-09-07T03:55:21.264Z,94684.84
2018-09-07T03:57:47.607Z,94686.07
2018-09-07T04:00:14.001Z,94685.47
2018-09-07T04:02:40.349Z,94685.77
2018-09-07T04:05:06.791Z,94690.34
2018-09-07T04:07:34.376Z,94692.36
2018-09-07T04:10:00.857Z,94691.89
2018-09-07T04:12:27.215Z,94689.33
2018-09-07T04:14:53.597Z,94691.74
2018-09-07T04:17:19.927Z,94698.91
2018-09-07T04:19:46.264Z,94696.98
2018-09-07T04:22:12.623Z,94697.88
2018-09-07T04:24:38.944Z,94701.18
2018-09-07T04:27:05.320Z,94697.91
2018-09-07T04:29:31.648Z,94701.58
2018-09-07T04:31:58.019Z,94699.68
2018-09-07T04:34:24.367Z,94697.85
2018-09-07T04:36:50.746Z,94695.41
2018-09-07T04:39:17.148Z,94698.86
2018-09-07T04:41:43.507Z,94695.33
2018-09-07T04:44:09.832Z,94690.55
2018-09-07T04:46:36.270Z,94694.77
2018-09-07T04:49:02.661Z,94699.86
2018-09-07T04:51:29.019Z,94704.81
2018-09-07T04:53:55.352Z,94702.70
2018-09-07T04:56:21.721Z,94706.05
2018-09-07T04:58:48.056Z,94713.80
2018-09-07T05:01:14.427Z,94716.84
2018-09-07T05:03:40.766Z,94713.72
2018-09-07T05:06:07.168Z,94724.75
2018-09-07T05:08:33.536Z,94725.03
2018-09-07T05:10:59.881Z,94725.23
2018-09-07T05:13:26.303Z,94733.24
2018-09-07T05:15:52.689Z,94724.78
2018-09-07T05:18:19.040Z,94729.17
2018-09-07T05:20:45.391Z,94735.73
2018-09-07T05:23:11.764Z,94738.02
2018-09-07T05:25:38.156Z,94737.86
2018-09-07T05:28:04.536Z,94736.51
2018-09-07T05:30:30.903Z,94734.98
2018-09-07T05:32:57.295Z,94735.20
2018-09-07T05:35:23.650Z,94736.91
2018-09-07T05:37:49.968Z,94737.36
2018-09-07T05:40:16.299Z,94737.81
2018-09-07T05:42:42.710Z,94742.73
2018-09-07T05:45:09.067Z,94734.48
2018-09-07T05:47:35.397Z,94744.34
2018-09-07T05:50:01.762Z,94741.48
2018-09-07T05:52:28.149Z,94749.55
2018-09-07T05:54:54.567Z,94752.48
2018-09-07T05:57:20.952Z,94752.54
2018-09-07T05:59:47.432Z,94751.03
2018-09-07T06:02:13.774Z,94750.19
2018-09-07T06:04:40.128Z,94745.41
2018-09-07T06:07:06.452Z,94753.03
2018-09-07T06:09:32.844Z,94757.39
2018-09-07T06:11:59.210Z,94749.30
2018-09-07T06:14:25.561Z,94749.47
2018-09-07T06:16:51.965Z,94748.81
2018-09-07T06:19:18.375Z,94749.41
2018-09-07T06:21:44.729Z,94749.77
2018-09-07T06:24:11.059Z,94750.63
2018-09-07T06:26:37.421Z,94754.60
2018-09-07T06:29:03.791Z,94751.67
2018-09-07T06:31:30.230Z,94752.19
2018-09-07T06:33:56.619Z,94758.10
2018-09-07T06:36:22.967Z,94758.08
2018-09-07T06:38:49.403Z,94764.05
2018-09-07T06:41:15.687Z,94768.30
2018-09-07T06:43:42.034Z,94766.22
2018-09-07T06:46:08.474Z,94766.73
2018-09-07T06:48:34.848Z,94766.69
2018-09-07T06:51:01.241Z,94764.60
2018-09-07T06:53:27.577Z,94768.34
2018-09-07T06:55:53.959Z,94771.73
2018-09-07T06:58:20.294Z,94773.05
2018-09-07T07:00:46.675Z,94771.80
2018-09-07T07:03:13.001Z,94772.31
2018-09-07T07:05:39.344Z,94773.75
2018-09-07T07:08:05.747Z,94776.27
2018-09-07T07:10:32.129Z,94769.99
2018-09-07T07:12:58.459Z,94772.25
2018-09-07T07:15:24.890Z,94770.66
2018-09-07T07:17:51.256Z,94772.80
2018-09-07T07:20:17.620Z,94775.10
2018-09-07T07:22:43.968Z,94766.53
2018-09-07T07:25:10.312Z,94763.91
2018-09-07T07:27:36.668Z,94756.94
2018-09-07T07:30:03.022Z,94760.89
2018-09-07T07:32:29.424Z,94761.19
2018-09-07T07:34:55.941Z,94764.94
2018-09-07T07:37:22.299Z,94767.87
2018-09-07T07:39:48.632Z,94763.70
2018-09-07T07:42:15.000Z,94769.59
2018-09-07T07:44:41.364Z,94763.06
2018-09-07T07:47:07.707Z,94761.88
2018-09-07T07:49:34.052Z,94767.31
2018-09-07T07:52:00.428Z,94768.91
2018-09-07T07:54:26.787Z,94760.67
2018-09-07T07:56:53.193Z,94761.91
2018-09-07T07:59:19.507Z,94751.95
2018-09-07T08:01:45.881Z,94746.80
2018-09-07T08:04:12.320Z,94756.44
2018-09-07T08:06:38.660Z,94747.20
2018-09-07T08:09:05.041Z,94752.47
2018-09-07T08:11:31.437Z,94747.14
2018-09-07T08:13:57.747Z,94747.09
2018-09-07T08:16:24.133Z,94741.56
2018-09-07T08:18:50.478Z,94748.02
2018-09-07T08:21:16.822Z,94745.44
2018-09-07T08:23:43.138Z,94749.08
2018-09-07T08:26:09.594Z,94745.62
2018-09-07T08:28:35.921Z,94747.00
2018-09-07T08:31:02.245Z,94746.53
2018-09-07T08:33:28.576Z,94746.74
2018-09-07T08:35:54.968Z,94745.66
2018-09-07T08:38:21.304Z,94748.53
2018-09-07T08:40:47.725Z,94747.50
2018-09-07T08:43:14.088Z,94745.07
2018-09-07T08:45:40.451Z,94746.64
2018-09-07T08:48:06.887Z,94739.11
2018-09-07T08:50:33.217Z,94740.17
2018-09-07T08:52:59.637Z,94744.86
2018-09-07T08:55:26.030Z,94742.18
2018-09-07T08:57:52.433Z,94743.23
2018-09-07T09:00:18.815Z,94735.17
2018-09-07T09:02:45.215Z,94729.50
2018-09-07T09:05:11.547Z,94723.52
2018-09-07T09:07:37.871Z,94729.56
2018-09-07T09:10:04.255Z,94737.31
2018-09-07T09:12:30.640Z,94730.17
2018-09-07T09:14:57.103Z,94730.87
2018-09-07T09:17:23.448Z,94731.56
2018-09-07T09:19:49.808Z,94729.26
2018-09-07T09:22:16.131Z,94731.28
2018-09-07T09:24:42.501Z,94733.00
2018-09-07T09:27:08.893Z,94731.39
2018-09-07T09:29:35.234Z,94725.30
2018-09-07T09:32:01.619Z,94725.88
2018-09-07T09:34:27.999Z,94722.64
2018-09-07T09:36:54.327Z,94727.31
2018-09-07T09:39:20.692Z,94722.97
2018-09-07T09:41:47.051Z,94715.89
2018-09-07T09:44:13.427Z,94715.00
2018-09-07T09:46:39.777Z,94715.27
2018-09-07T09:49:06.162Z,94711.94
2018-09-07T09:51:32.586Z,94702.92
2018-09-07T09:53:58.941Z,94715.80
2018-09-07T09:56:25.274Z,94710.78
2018-09-07T09:58:51.678Z,94704.41
2018-09-07T10:01:18.015Z,94701.95
2018-09-07T10:03:44.448Z,94704.33
2018-09-07T10:06:10.796Z,94704.42
2018-09-07T10:08:37.207Z,94699.42
2018-09-07T10:11:03.541Z,94695.73
2018-09-07T10:13:29.974Z,94697.36
2018-09-07T10:15:56.407Z,94694.81
2018-09-07T10:18:22.767Z,94692.64
2018-09-07T10:20:49.164Z,94690.48
2018-09-07T10:23:15.599Z,94689.77
2018-09-07T10:25:41.963Z,94695.42
2018-09-07T10:28:08.467Z,94694.19
2018-09-07T10:30:34.809Z,94689.08
2018-09-07T10:33:01.157Z,94688.00
2018-09-07T10:35:27.483Z,94686.31
2018-09-07T10:37:53.999Z,94680.92
2018-09-07T10:40:20.430Z,94674.80
2018-09-07T10:42:46.929Z,94672.55
2018-09-07T10:45:13.497Z,94674.06
2018-09-07T10:47:39.879Z,94669.12
2018-09-07T10:50:06.266Z,94669.47
2018-09-07T10:52:32.616Z,94667.67
2018-09-07T10:54:59.016Z,94669.28
2018-09-07T10:57:25.454Z,94673.09
2018-09-07T10:59:51.792Z,94667.67
2018-09-07T11:02:18.165Z,94663.44
2018-09-07T11:04:44.543Z,94673.67
2018-09-07T11:07:10.905Z,94668.89
2018-09-07T11:09:37.261Z,94675.92
2018-09-07T11:12:04.428Z,94676.49
2018-09-07T11:14:30.827Z,94675.28
2018-09-07T11:16:57.152Z,94674.51
2018-09-07T11:19:23.679Z,94673.17
2018-09-07T11:21:50.030Z,94670.45
2018-09-07T11:24:16.444Z,94674.53
2018-09-07T11:26:42.855Z,94674.00
2018-09-07T11:29:09.200Z,94669.36
2018-09-07T11:31:35.536Z,94676.17
2018-09-07T11:34:01.876Z,94672.04
2018-09-07T11:36:28.212Z,94666.13
2018-09-07T11:38:54.615Z,94662.88
2018-09-07T11:41:20.947Z,94662.48
2018-09-07T11:43:47.380Z,94663.70
2018-09-07T11:46:13.768Z,94664.66
2018-09-07T11:48:40.199Z,94665.59
2018-09-07T11:51:06.534Z,94656.06
2018-09-07T11:53:32.904Z,94660.19
2018-09-07T11:55:59.240Z,94659.17
2018-09-07T11:58:25.722Z,94653.08
2018-09-07T12:00:52.012Z,94660.35
2018-09-07T12:03:18.439Z,94653.84
2018-09-07T12:05:44.788Z,94651.84
2018-09-07T12:08:11.167Z,94643.91
2018-09-07T12:10:37.582Z,94637.32
2018-09-07T12:13:04.121Z,94632.84
2018-09-07T12:15:30.294Z,94627.08
2018-09-07T12:17:56.643Z,94630.66
2018-09-07T12:20:22.986Z,94627.60
2018-09-07T12:22:49.367Z,94628.20
2018-09-07T12:25:15.764Z,94628.03
2018-09-07T12:27:42.162Z,94629.13
2018-09-07T12:30:08.635Z,94614.80
2018-09-07T12:32:34.990Z,94610.14
2018-09-07T12:35:01.328Z,94618.88
2018-09-07T12:37:27.696Z,94612.69
2018-09-07T12:39:54.036Z,94625.89
2018-09-07T12:42:20.391Z,94619.70
2018-09-07T12:44:46.716Z,94614.02
2018-09-07T12:47:13.056Z,94606.03
2018-09-07T12:49:39.421Z,94608.31
2018-09-07T12:52:05.751Z,94616.11
2018-09-07T12:54:32.111Z,94617.94
2018-09-07T12:56:58.480Z,94615.83
2018-09-07T12:59:24.839Z,94611.98
2018-09-07T13:01:51.178Z,94613.69
2018-09-07T13:04:17.607Z,94615.42
2018-09-07T13:06:43.978Z,94615.41
2018-09-07T13:09:10.326Z,94611.76
2018-09-07T13:11:36.665Z,94614.31
2018-09-07T13:14:03.006Z,94613.11
2018-09-07T13:16:29.353Z,94615.13
2018-09-07T13:18:55.684Z,94612.25
2018-09-07T13:21:22.016Z,94617.71
2018-09-07T13:23:48.353Z,94615.86
2018-09-07T13:26:14.708Z,94617.64
2018-09-07T13:28:41.133Z,94613.28
2018-09-07T13:31:07.491Z,94608.84
2018-09-07T13:33:33.840Z,94617.20
2018-09-07T13:36:00.173Z,94614.45
2018-09-07T13:38:26.843Z,94614.28
2018-09-07T13:40:53.208Z,94602.94
2018-09-07T13:43:19.603Z,94612.53
2018-09-07T13:45:45.936Z,94613.70
2018-09-07T13:48:12.409Z,94615.66
2018-09-07T13:50:38.737Z,94612.79
2018-09-07T13:53:05.078Z,94612.41
2018-09-07T13:55:31.432Z,94618.08
2018-09-07T13:57:57.792Z,94616.41
2018-09-07T14:00:24.164Z,94614.19
2018-09-07T14:02:50.555Z,94613.31
2018-09-07T14:05:16.936Z,94610.34
2018-09-07T14:07:43.284Z,94612.59
2018-09-07T14:10:09.618Z,94612.90
2018-09-07T14:12:35.972Z,94606.48
2018-09-07T14:15:02.310Z,94606.13
2018-09-07T14:17:28.654Z,94604.86
2018-09-07T14:19:55.106Z,94608.78
2018-09-07T14:22:21.506Z,94611.13
2018-09-07T14:24:47.936Z,94614.91
2018-09-07T14:27:14.270Z,94615.56
2018-09-07T14:29:40.592Z,94611.84
2018-09-07T14:32:06.983Z,94618.94
2018-09-07T14:34:33.315Z,94621.91
2018-09-07T14:36:59.696Z,94628.19
2018-09-07T14:39:26.028Z,94639.33
2018-09-07T14:41:52.363Z,94630.88
2018-09-07T14:44:18.691Z,94633.95
2018-09-07T14:46:45.021Z,94635.53
2018-09-07T14:49:11.447Z,94625.62
2018-09-07T14:51:37.715Z,94632.61
2018-09-07T14:54:04.081Z,94628.23
2018-09-07T14:56:30.419Z,94636.52
2018-09-07T14:58:56.744Z,94638.18
2018-09-07T15:01:23.075Z,94636.94
2018-09-07T15:03:49.402Z,94639.24
2018-09-07T15:06:15.750Z,94634.17
2018-09-07T15:08:42.084Z,94635.72
2018-09-07T15:11:08.677Z,94633.94
2018-09-07T15:13:35.027Z,94630.41
2018-09-07T15:16:01.362Z,94627.17
2018-09-07T15:18:27.713Z,94636.76
2018-09-07T15:20:54.129Z,94630.11
2018-09-07T15:23:20.495Z,94630.41
2018-09-07T15:25:46.817Z,94635.52
2018-09-07T15:28:13.231Z,94635.31
2018-09-07T15:30:39.555Z,94629.95
2018-09-07T15:33:05.910Z,94632.93
2018-09-07T15:35:32.288Z,94629.83
2018-09-07T15:37:58.725Z,94630.30
2018-09-07T15:40:25.088Z,94630.44
2018-09-07T15:42:51.446Z,94636.20
2018-09-07T15:45:17.823Z,94635.37
2018-09-07T15:47:44.167Z,94636.59
2018-09-07T15:50:10.500Z,94642.33
2018-09-07T15:52:36.866Z,94632.30
2018-09-07T15:55:03.221Z,94638.38
2018-09-07T15:57:29.588Z,94632.33
2018-09-07T15:59:55.956Z,94637.05
2018-09-07T16:02:22.279Z,94637.70
2018-09-07T16:04:48.646Z,94635.46
2018-09-07T16:07:15.008Z,94631.93
2018-09-07T16:09:41.368Z,94630.88
2018-09-07T16:12:07.748Z,94636.52
2018-09-07T16:14:34.070Z,94638.41
2018-09-07T16:17:00.405Z,94643.65
2018-09-07T16:19:26.775Z,94644.78
2018-09-07T16:21:53.109Z,94642.82
2018-09-07T16:24:19.470Z,94644.78
2018-09-07T16:26:45.868Z,94642.73
2018-09-07T16:29:12.261Z,94641.25
2018-09-07T16:31:38.557Z,94646.25
2018-09-07T16:34:04.927Z,94646.36
2018-09-07T16:36:31.285Z,94652.17
2018-09-07T16:38:57.655Z,94654.97
2018-09-07T16:41:23.983Z,94653.72
2018-09-07T16:43:50.352Z,94658.73
2018-09-07T16:46:16.680Z,94665.98
2018-09-07T16:48:43.048Z,94665.45
2018-09-07T16:51:09.710Z,94665.09
2018-09-07T16:53:36.075Z,94667.44
2018-09-07T16:56:02.413Z,94670.20
2018-09-07T16:58:28.839Z,94675.44
2018-09-07T17:00:55.172Z,94676.28
2018-09-07T17:03:21.552Z,94685.59
2018-09-07T17:05:47.942Z,94692.06
2018-09-07T17:08:14.288Z,94696.73
2018-09-07T17:10:40.668Z,94701.72
2018-09-07T17:13:07.000Z,94700.62
2018-09-07T17:15:33.425Z,94704.37
2018-09-07T17:17:59.761Z,94711.31
2018-09-07T17:20:26.092Z,94711.06
2018-09-07T17:22:52.432Z,94717.27
2018-09-07T17:25:18.831Z,94724.75
2018-09-07T17:27:45.160Z,94735.57
2018-09-07T17:30:11.485Z,94737.34
2018-09-07T17:32:37.842Z,94744.97
2018-09-07T17:35:04.211Z,94752.95
2018-09-07T17:37:30.639Z,94754.30
2018-09-07T17:39:56.974Z,94763.45
2018-09-07T17:42:23.304Z,94773.73
2018-09-07T17:44:49.671Z,94781.77
2018-09-07T17:47:16.000Z,94785.64
2018-09-07T17:49:42.365Z,94785.98
2018-09-07T17:52:08.690Z,94791.78
2018-09-07T17:54:35.060Z,94794.61
2018-09-07T17:57:01.390Z,94799.84
2018-09-07T17:59:27.720Z,94799.84
2018-09-07T18:01:54.052Z,94796.17
2018-09-07T18:04:20.416Z,94801.34
2018-09-07T18:06:46.747Z,94800.68
2018-09-07T18:09:13.078Z,94814.33
2018-09-07T18:11:39.448Z,94810.00
2018-09-07T18:14:05.789Z,94808.48
2018-09-07T18:16:32.142Z,94818.92
2018-09-07T18:18:58.540Z,94816.98
2018-09-07T18:21:24.871Z,94821.74
2018-09-07T18:23:51.197Z,94820.95
2018-09-07T18:26:17.566Z,94824.70
2018-09-07T18:28:43.957Z,94830.45
2018-09-07T18:31:10.284Z,94831.43
2018-09-07T18:33:36.636Z,94834.20
2018-09-07T18:36:03.385Z,94835.17
2018-09-07T18:38:29.398Z,94838.07
2018-09-07T18:40:55.808Z,94848.68
2018-09-07T18:43:22.154Z,94842.69
2018-09-07T18:45:48.551Z,94845.95
2018-09-07T18:48:14.945Z,94843.44
2018-09-07T18:50:41.304Z,94839.98
2018-09-07T18:53:07.681Z,94844.08
2018-09-07T18:55:34.007Z,94841.86
2018-09-07T18:58:00.458Z,94840.31
2018-09-07T19:00:26.812Z,94842.36
2018-09-07T19:02:53.187Z,94842.92
2018-09-07T19:05:19.736Z,94847.80
2018-09-07T19:07:46.088Z,94849.09
2018-09-07T19:10:12.436Z,94850.70
2018-09-07T19:12:38.793Z,94854.66
2018-09-07T19:15:05.122Z,94855.13
2018-09-07T19:17:31.499Z,94858.80
2018-09-07T19:19:57.889Z,94859.02
2018-09-07T19:22:24.220Z,94857.78
2018-09-07T19:24:50.588Z,94864.78
2018-09-07T19:27:16.921Z,94865.39
2018-09-07T19:29:43.255Z,94868.52
2018-09-07T19:32:09.632Z,94861.84
2018-09-07T19:34:35.963Z,94866.52
2018-09-07T19:37:02.307Z,94864.97
2018-09-07T19:39:28.699Z,94863.69
2018-09-07T19:41:55.089Z,94868.31
2018-09-07T19:44:21.484Z,94867.70
2018-09-07T19:46:47.842Z,94832.12
2018-09-07T19:49:14.229Z,94871.28
2018-09-07T19:51:40.559Z,94875.12
2018-09-07T19:54:07.036Z,94867.27
2018-09-07T19:56:33.289Z,94877.63
2018-09-07T19:58:59.661Z,94878.86
2018-09-07T20:01:26.037Z,94880.97
2018-09-07T20:03:52.372Z,94885.45
2018-09-07T20:06:18.774Z,94892.55
2018-09-07T20:08:45.103Z,94892.02
2018-09-07T20:11:11.461Z,94890.59
2018-09-07T20:13:37.784Z,94892.55
2018-09-07T20:16:04.127Z,94893.34
2018-09-07T20:18:30.490Z,94893.02
2018-09-07T20:20:56.823Z,94889.16
2018-09-07T20:23:23.192Z,94890.55
2018-09-07T20:25:49.549Z,94896.50
2018-09-07T20:28:15.884Z,94902.95
2018-09-07T20:30:42.245Z,94900.58
2018-09-07T20:33:08.610Z,94900.31
2018-09-07T20:35:34.942Z,94899.70
2018-09-07T20:38:01.263Z,94895.61
2018-09-07T20:40:27.663Z,94906.05
2018-09-07T20:42:54.055Z,94903.36
2018-09-07T20:45:20.632Z,94907.48
2018-09-07T20:47:47.020Z,94908.16
2018-09-07T20:50:13.375Z,94914.88
2018-09-07T20:52:39.776Z,94915.66
2018-09-07T20:55:06.120Z,94916.68
2018-09-07T20:57:32.520Z,94920.75
2018-09-07T20:59:58.921Z,94914.45
2018-09-07T21:02:25.267Z,94913.80
2018-09-07T21:04:51.589Z,94913.06
2018-09-07T21:07:17.914Z,94919.72
2018-09-07T21:09:44.274Z,94924.53
2018-09-07T21:12:10.596Z,94922.14
2018-09-07T21:14:36.904Z,94929.59
2018-09-07T21:17:03.262Z,94927.72
2018-09-07T21:19:29.619Z,94927.06
2018-09-07T21:21:56.040Z,94926.59
2018-09-07T21:24:22.367Z,94934.17
2018-09-07T21:26:48.756Z,94931.74
2018-09-07T21:29:15.088Z,94926.84
2018-09-07T21:31:41.467Z,94931.00
2018-09-07T21:34:07.803Z,94926.30
2018-09-07T21:36:34.146Z,94927.22
2018-09-07T21:39:00.484Z,94924.64
2018-09-07T21:41:26.975Z,94924.95
2018-09-07T21:43:53.299Z,94920.61
2018-09-07T21:46:19.704Z,94927.48
2018-09-07T21:48:46.195Z,94925.69
2018-09-07T21:51:12.535Z,94926.70
2018-09-07T21:53:38.900Z,94920.81
2018-09-07T21:56:05.255Z,94927.93
2018-09-07T21:58:31.643Z,94925.92
2018-09-07T22:00:57.979Z,94921.94
2018-09-07T22:03:24.608Z,94922.26
2018-09-07T22:05:51.278Z,94925.39
2018-09-07T22:08:17.876Z,94926.89
2018-09-07T22:10:44.512Z,94931.02
2018-09-07T22:13:10.999Z,94922.09
2018-09-07T22:15:37.633Z,94928.76
2018-09-07T22:18:03.999Z,94925.86
2018-09-07T22:20:30.441Z,94921.92
2018-09-07T22:22:56.789Z,94925.95
2018-09-07T22:25:23.453Z,94921.83
2018-09-07T22:27:49.791Z,94918.22
2018-09-07T22:30:16.125Z,94909.03
2018-09-07T22:32:42.447Z,94908.88
2018-09-07T22:35:08.800Z,94903.20
2018-09-07T22:37:35.184Z,94904.69
2018-09-07T22:40:01.523Z,94902.37
2018-09-07T22:42:27.920Z,94914.44
2018-09-07T22:44:54.246Z,94915.83
2018-09-07T22:47:20.573Z,94922.94
2018-09-07T22:49:46.938Z,94923.98
2018-09-07T22:52:13.268Z,94920.42
2018-09-07T22:54:39.594Z,94923.35
2018-09-07T22:57:05.972Z,94926.08
2018-09-07T22:59:32.292Z,94928.81
2018-09-07T23:01:58.618Z,94925.61
2018-09-07T23:04:24.960Z,94927.72
2018-09-07T23:06:51.363Z,94929.48
2018-09-07T23:09:17.723Z,94932.16
2018-09-07T23:11:44.096Z,94932.45
2018-09-07T23:14:10.423Z,94930.91
2018-09-07T23:16:36.785Z,94923.94
2018-09-07T23:19:03.129Z,94922.13
2018-09-07T23:21:29.490Z,94918.70
2018-09-07T23:23:55.846Z,94918.78
2018-09-07T23:26:22.192Z,94917.44
2018-09-07T23:28:48.525Z,94917.42
2018-09-07T23:31:14.914Z,94913.19
2018-09-07T23:33:41.307Z,94910.17
2018-09-07T23:36:07.741Z,94916.05
2018-09-07T23:38:34.113Z,94913.72
2018-09-07T23:41:00.452Z,94919.80
2018-09-07T23:43:26.801Z,94916.19
2018-09-07T23:45:53.151Z,94915.25
2018-09-07T23:48:19.509Z,94914.48
2018-09-07T23:50:45.917Z,94916.19
2018-09-07T23:53:12.301Z,94911.28
2018-09-07T23:55:38.620Z,94916.13
2018-09-07T23:58:04.935Z,94918.02
